KCON/CON METAR and TAF weather

Enter ICAO airport designator
Station Type Date Time Source
KCON METAR 2021/07/27 20:51 UTC NOAA

KCON 272051Z AUTO 00000KT 9SM SCT070 BKN100 28/15 A2987 RMK AO2 SLP113 T02780150 56013


Station Type Date Time Source
KCON Decoded METAR 2021/07/27 20:51 UTC NOAA

Concord, Concord Municipal Airport, NH, United States (KCON) 43-11-43N 071-30-04W 103M
Jul 27, 2021 - 04:51 PM EDT / 2021.07.27 2051 UTC
Wind: Calm:0
Visibility: 9 mile(s):0
Sky conditions: mostly cloudy
Temperature: 82.0 F (27.8 C)
Dew Point: 59.0 F (15.0 C)
Relative Humidity: 45%
Pressure (altimeter): 29.87 in. Hg (1011 hPa)
Pressure tendency: 0.04 inches (1.3 hPa) lower than three hours ago
ob: KCON 272051Z AUTO 00000KT 9SM SCT070 BKN100 28/15 A2987 RMK AO2 SLP113 T02780150 56013
cycle: 21

Station Type Date Time Source
KCON TAF 2021/07/27 21:18 UTC NOAA

TAF
AMD KCON 272116Z 2721/2818 31005KT P6SM SKC
TEMPO 2722/2801 1SM TSRA BR BKN035CB
FM280100 VRB03KT 4SM -SHRA BKN027
FM280600 VRB02KT P6SM OVC030
FM281500 04005KT P6SM SCT035

Example: see airport list